Time;durP1;ratioP1;P1;durP2;ratioP2;P2;SDS_P1;SDS_P2;PMS_P1;PMS_P2;Temp;Humidity;BMP_temperature;BMP_pressure;BME280_temperature;BME280_humidity;BME280_pressure;Samples;Min_cycle;Max_cycle;Signal;HPM_P1;HPM_P2
2022/07/07 00:00:28;;;;;;;1.70;1.60;;;19.00;93.40;;;;;;4884184;29;20039;-75
2022/07/07 00:02:56;;;;;;;2.88;2.17;;;18.90;93.40;;;;;;4902217;29;20032;-76
2022/07/07 00:05:22;;;;;;;1.50;1.40;;;18.90;93.40;;;;;;4903225;29;20476;-76
2022/07/07 00:07:48;;;;;;;2.00;1.60;;;18.90;93.40;;;;;;4900887;29;20028;-76
2022/07/07 00:10:16;;;;;;;2.90;1.77;;;19.00;93.20;;;;;;4880882;29;20038;-77
2022/07/07 00:12:44;;;;;;;1.65;1.55;;;19.00;92.80;;;;;;4882442;29;20036;-76
2022/07/07 00:15:10;;;;;;;1.40;1.30;;;19.00;92.60;;;;;;4905012;29;20107;-76
2022/07/07 00:17:36;;;;;;;1.45;1.35;;;19.00;92.50;;;;;;4902622;29;20111;-76
2022/07/07 00:20:05;;;;;;;1.80;1.70;;;19.00;92.40;;;;;;4900537;29;20051;-77
2022/07/07 00:22:30;;;;;;;3.28;1.40;;;19.00;92.60;;;;;;4903397;29;20040;-76
2022/07/07 00:24:56;;;;;;;2.80;1.80;;;18.90;92.50;;;;;;4887326;29;20525;-75
2022/07/07 00:27:28;;;;;;;1.73;1.60;;;18.90;92.40;;;;;;4879352;29;20351;-76
2022/07/07 00:29:55;;;;;;;1.55;1.45;;;18.90;92.40;;;;;;4898889;29;20044;-76
2022/07/07 00:32:27;;;;;;;1.40;1.33;;;18.90;92.30;;;;;;4888966;29;20021;-76
2022/07/07 00:34:54;;;;;;;2.08;1.58;;;18.90;92.30;;;;;;4904097;29;20100;-75
2022/07/07 00:37:20;;;;;;;1.73;1.48;;;18.90;92.30;;;;;;4888822;29;20545;-75
2022/07/07 00:39:47;;;;;;;1.70;1.42;;;18.80;92.40;;;;;;4900843;29;20043;-77
2022/07/07 00:42:15;;;;;;;1.55;1.45;;;18.80;92.50;;;;;;4900314;29;20025;-76
2022/07/07 00:44:42;;;;;;;1.40;1.30;;;18.80;92.10;;;;;;4902898;29;20067;-76
2022/07/07 00:47:09;;;;;;;1.63;1.52;;;18.80;92.40;;;;;;4885103;29;20043;-76
2022/07/07 00:49:39;;;;;;;1.30;1.20;;;18.80;92.10;;;;;;4903213;29;20031;-75
2022/07/07 00:52:07;;;;;;;2.88;1.35;;;18.70;92.30;;;;;;4903576;29;20016;-76
2022/07/07 00:54:39;;;;;;;1.73;1.60;;;18.80;92.10;;;;;;4903680;29;20683;-76
2022/07/07 00:57:06;;;;;;;1.65;1.55;;;18.80;92.30;;;;;;4907748;29;20032;-75
2022/07/07 00:59:33;;;;;;;1.88;1.48;;;18.70;92.50;;;;;;4897997;29;20044;-76
2022/07/07 01:02:04;;;;;;;1.73;1.50;;;18.60;92.60;;;;;;4883930;29;20139;-76
2022/07/07 01:04:31;;;;;;;2.88;1.48;;;18.50;92.70;;;;;;4908064;29;20032;-76
2022/07/07 01:06:59;;;;;;;1.83;1.70;;;18.40;92.80;;;;;;4899614;29;20051;-76
2022/07/07 01:09:25;;;;;;;1.70;1.50;;;18.30;92.80;;;;;;4897011;29;20044;-77
2022/07/07 01:11:59;;;;;;;3.10;1.52;;;18.20;93.10;;;;;;4906821;29;20016;-76
2022/07/07 01:14:25;;;;;;;1.40;1.30;;;18.20;93.20;;;;;;4880959;29;20144;-76
2022/07/07 01:16:51;;;;;;;3.35;1.70;;;18.20;93.30;;;;;;4885042;29;20111;-76
2022/07/07 01:19:19;;;;;;;;;;;18.20;93.30;;;;;;4882490;29;20501;-77
2022/07/07 01:22:03;;;;;;;1.40;1.30;;;18.10;93.40;;;;;;4902218;29;19914;-76
2022/07/07 01:24:31;;;;;;;2.90;1.98;;;18.10;93.50;;;;;;4895935;29;20033;-76
2022/07/07 01:27:14;;;;;;;1.70;1.60;;;18.10;93.70;;;;;;4904823;29;20017;-76
2022/07/07 01:29:44;;;;;;;2.38;1.48;;;18.10;93.80;;;;;;4900644;29;20020;-77
2022/07/07 01:32:12;;;;;;;1.60;1.42;;;18.10;93.80;;;;;;4880370;29;20036;-76
2022/07/07 01:34:40;;;;;;;1.98;1.63;;;18.00;93.70;;;;;;4904956;29;20044;-77
2022/07/07 01:37:07;;;;;;;1.77;1.63;;;18.00;93.70;;;;;;4898417;29;20036;-75
2022/07/07 01:39:34;;;;;;;1.50;1.40;;;17.90;94.00;;;;;;4904470;29;20035;-75
2022/07/07 01:42:03;;;;;;;1.85;1.58;;;17.90;93.90;;;;;;4880558;29;20802;-77
2022/07/07 01:44:34;;;;;;;1.77;1.40;;;18.00;94.00;;;;;;4895890;29;20127;-76
2022/07/07 01:47:00;;;;;;;2.55;1.48;;;17.90;94.00;;;;;;4898801;29;20103;-77
2022/07/07 01:49:29;;;;;;;3.00;1.80;;;17.90;93.90;;;;;;4880678;29;20033;-76
2022/07/07 01:51:55;;;;;;;2.47;1.65;;;17.90;93.90;;;;;;4882195;29;20359;-77
2022/07/07 01:54:23;;;;;;;3.30;1.70;;;17.90;93.70;;;;;;4899234;29;20153;-76
2022/07/07 01:56:49;;;;;;;2.13;1.63;;;17.90;93.70;;;;;;4900478;29;20039;-76
2022/07/07 01:59:16;;;;;;;2.00;1.80;;;17.90;93.60;;;;;;4897240;29;20040;-76
2022/07/07 02:01:43;;;;;;;1.88;1.40;;;18.00;93.50;;;;;;4899999;29;20024;-75
2022/07/07 02:04:16;;;;;;;1.88;1.42;;;18.00;93.60;;;;;;4897729;29;20067;-76
2022/07/07 02:06:46;;;;;;;3.20;1.60;;;18.10;93.90;;;;;;4883854;29;20376;-76
2022/07/07 02:09:18;;;;;;;2.10;1.42;;;18.10;93.70;;;;;;4897086;29;20016;-76
2022/07/07 02:11:53;;;;;;;2.20;1.60;;;18.10;93.50;;;;;;4895978;29;20095;-76
2022/07/07 02:14:21;;;;;;;3.47;1.58;;;18.10;93.40;;;;;;4876779;29;20682;-76
2022/07/07 02:16:49;;;;;;;1.73;1.58;;;18.20;93.40;;;;;;4900346;29;20026;-76
2022/07/07 02:19:17;;;;;;;1.75;1.45;;;18.20;93.30;;;;;;4900977;29;20059;-76
2022/07/07 02:21:46;;;;;;;2.83;1.55;;;18.20;93.50;;;;;;4900406;29;20482;-76
2022/07/07 02:24:13;;;;;;;1.80;1.70;;;18.30;93.30;;;;;;4882958;29;20063;-76
2022/07/07 02:26:44;;;;;;;5.65;1.88;;;18.40;93.10;;;;;;4896914;29;20099;-76
2022/07/07 02:29:13;;;;;;;1.58;1.48;;;18.40;93.20;;;;;;4888658;29;20667;-76
2022/07/07 02:31:44;;;;;;;1.52;1.42;;;18.40;93.30;;;;;;4899789;29;20407;-76
2022/07/07 02:34:21;;;;;;;1.80;1.40;;;18.40;93.40;;;;;;4899016;29;20258;-76
2022/07/07 02:36:47;;;;;;;;;;;18.40;93.50;;;;;;4882871;29;20031;-76
2022/07/07 02:39:12;;;;;;;3.60;1.52;;;18.50;93.50;;;;;;4875325;29;19911;-76
2022/07/07 02:41:39;;;;;;;3.30;1.50;;;18.50;93.30;;;;;;4886693;29;20511;-76
2022/07/07 02:44:18;;;;;;;1.75;1.65;;;18.50;93.30;;;;;;4896240;29;20029;-76
2022/07/07 02:46:45;;;;;;;2.25;1.50;;;18.50;93.30;;;;;;4901873;29;20028;-76
2022/07/07 02:49:13;;;;;;;1.45;1.38;;;18.50;93.50;;;;;;4886005;29;20529;-76
2022/07/07 02:51:42;;;;;;;3.72;1.50;;;18.50;93.60;;;;;;4884188;29;20032;-76
2022/07/07 02:54:08;;;;;;;2.15;1.88;;;18.50;93.70;;;;;;4900302;29;20047;-76
2022/07/07 02:56:38;;;;;;;1.60;1.50;;;18.50;93.80;;;;;;4901314;29;20393;-77
2022/07/07 02:59:05;;;;;;;2.42;1.70;;;18.50;93.70;;;;;;4899982;29;20036;-76
2022/07/07 03:01:33;;;;;;;1.50;1.40;;;18.50;93.90;;;;;;4899336;29;20062;-76
2022/07/07 03:04:04;;;;;;;1.60;1.50;;;18.60;93.80;;;;;;4882127;29;20063;-76
2022/07/07 03:06:32;;;;;;;1.70;1.60;;;18.60;93.70;;;;;;4896515;29;20020;-76
2022/07/07 03:08:59;;;;;;;2.53;1.42;;;18.70;93.80;;;;;;4897250;29;20032;-76
2022/07/07 03:11:26;;;;;;;2.92;1.77;;;18.70;93.70;;;;;;4899981;29;20027;-77
2022/07/07 03:13:52;;;;;;;2.00;1.65;;;18.60;93.90;;;;;;4898864;29;20024;-76
2022/07/07 03:16:20;;;;;;;1.80;1.70;;;18.60;94.00;;;;;;4877565;29;20723;-76
2022/07/07 03:18:46;;;;;;;3.88;1.75;;;18.60;93.90;;;;;;4881492;29;20486;-76
2022/07/07 03:21:12;;;;;;;2.00;1.60;;;18.70;94.30;;;;;;4896501;29;20027;-77
2022/07/07 03:23:38;;;;;;;1.90;1.80;;;18.60;94.30;;;;;;4904303;29;20028;-76
2022/07/07 03:26:06;;;;;;;2.27;1.73;;;18.60;94.40;;;;;;4878778;29;20051;-76
2022/07/07 03:28:32;;;;;;;1.70;1.60;;;18.60;94.50;;;;;;4899383;29;20264;-76
2022/07/07 03:31:03;;;;;;;1.92;1.70;;;18.60;94.70;;;;;;4883234;29;20028;-77
2022/07/07 03:33:28;;;;;;;3.67;1.75;;;18.60;94.80;;;;;;4896835;29;20103;-76
2022/07/07 03:35:58;;;;;;;2.33;1.88;;;18.60;94.80;;;;;;4892415;29;20036;-76
2022/07/07 03:38:25;;;;;;;2.03;1.80;;;18.60;94.60;;;;;;4898622;29;20040;-76
2022/07/07 03:40:50;;;;;;;3.10;1.80;;;18.60;94.80;;;;;;4897508;29;20562;-76
2022/07/07 03:43:17;;;;;;;2.40;1.52;;;18.60;94.80;;;;;;4895297;29;20107;-77
2022/07/07 03:45:44;;;;;;;1.67;1.58;;;18.70;94.70;;;;;;4901238;29;20073;-76
2022/07/07 03:48:13;;;;;;;2.42;1.80;;;18.70;94.60;;;;;;4885459;29;20032;-77
2022/07/07 03:50:39;;;;;;;2.47;1.98;;;18.80;94.90;;;;;;4899027;29;20047;-76
2022/07/07 03:53:06;;;;;;;2.00;1.77;;;18.80;94.70;;;;;;4897386;29;20474;-77
2022/07/07 03:55:38;;;;;;;2.30;2.10;;;18.70;95.10;;;;;;4899068;29;20474;-76
2022/07/07 03:58:04;;;;;;;2.10;1.90;;;18.70;95.20;;;;;;4899983;29;20123;-76
2022/07/07 04:00:33;;;;;;;1.90;1.80;;;18.70;94.90;;;;;;4900396;29;20035;-77
2022/07/07 04:03:00;;;;;;;3.97;2.22;;;18.60;95.10;;;;;;4902670;29;20566;-76
2022/07/07 04:05:27;;;;;;;2.53;2.00;;;18.60;95.20;;;;;;4898924;29;20079;-76
2022/07/07 04:07:53;;;;;;;1.90;1.80;;;18.70;95.20;;;;;;4901677;29;20032;-76
2022/07/07 04:10:25;;;;;;;3.75;2.17;;;18.80;95.00;;;;;;4878664;29;20036;-75
2022/07/07 04:12:54;;;;;;;2.38;1.85;;;18.90;95.50;;;;;;4902880;29;20186;-77
2022/07/07 04:15:20;;;;;;;2.17;2.08;;;19.00;95.20;;;;;;4897811;29;20028;-76
2022/07/07 04:17:52;;;;;;;2.35;2.03;;;19.00;95.30;;;;;;4889369;29;20028;-78
2022/07/07 04:20:18;;;;;;;3.67;2.03;;;18.90;95.50;;;;;;4896625;29;20512;-77
2022/07/07 04:22:44;;;;;;;2.20;2.08;;;18.80;95.20;;;;;;4899197;29;20040;-77
2022/07/07 04:25:11;;;;;;;1.80;1.70;;;18.80;95.40;;;;;;4884090;29;20040;-77
2022/07/07 04:27:37;;;;;;;2.38;1.92;;;19.00;96.00;;;;;;4882051;29;20032;-77
2022/07/07 04:30:05;;;;;;;2.15;1.95;;;19.00;94.80;;;;;;4905145;29;20486;-76
2022/07/07 04:32:31;;;;;;;2.22;1.83;;;18.90;95.00;;;;;;4900771;29;20050;-75
2022/07/07 04:34:57;;;;;;;2.05;1.92;;;18.90;95.90;;;;;;4880397;29;20389;-76
2022/07/07 04:37:23;;;;;;;3.17;2.25;;;19.10;95.50;;;;;;4884144;29;20032;-76
2022/07/07 04:39:56;;;;;;;2.20;1.98;;;19.30;95.00;;;;;;4884231;29;20043;-76
2022/07/07 04:42:23;;;;;;;2.85;2.22;;;19.30;95.60;;;;;;4895865;29;20520;-77
2022/07/07 04:44:49;;;;;;;1.85;1.70;;;19.30;95.40;;;;;;4900560;29;20580;-77
2022/07/07 04:47:14;;;;;;;2.88;2.03;;;19.40;95.30;;;;;;4895841;29;20024;-78
2022/07/07 04:49:40;;;;;;;17.15;2.97;;;19.40;95.20;;;;;;4881571;29;20547;-76
2022/07/07 04:52:06;;;;;;;3.03;2.53;;;19.10;95.40;;;;;;4897202;29;20035;-78
2022/07/07 04:54:32;;;;;;;2.33;2.15;;;19.30;95.90;;;;;;4898129;29;20040;-77
2022/07/07 04:56:57;;;;;;;3.05;2.42;;;19.30;95.40;;;;;;4876132;29;20052;-77
2022/07/07 04:59:24;;;;;;;3.97;2.13;;;19.30;95.10;;;;;;4901335;29;20047;-77
2022/07/07 05:01:54;;;;;;;5.85;3.15;;;19.50;95.10;;;;;;4879768;29;20020;-75
2022/07/07 05:04:21;;;;;;;2.90;2.60;;;19.50;97.50;;;;;;4904750;29;20024;-76
2022/07/07 05:06:47;;;;;;;3.50;2.40;;;19.60;94.60;;;;;;4887896;29;20107;-75
2022/07/07 05:09:13;;;;;;;2.50;2.30;;;19.90;93.80;;;;;;4900664;29;20107;-76
2022/07/07 05:11:39;;;;;;;15.98;2.80;;;20.10;94.80;;;;;;4897264;29;20442;-75
2022/07/07 05:14:12;;;;;;;2.60;2.40;;;20.00;93.80;;;;;;4890630;29;20028;-76
2022/07/07 05:16:42;;;;;;;2.50;2.30;;;20.20;93.00;;;;;;4883467;29;20847;-76
2022/07/07 05:19:11;;;;;;;2.47;2.22;;;20.30;94.10;;;;;;4886286;29;20413;-76
2022/07/07 05:21:39;;;;;;;3.58;2.30;;;20.40;92.90;;;;;;4885158;29;20044;-76
2022/07/07 05:24:05;;;;;;;2.20;2.05;;;20.40;92.50;;;;;;4881248;29;20959;-76
2022/07/07 05:26:34;;;;;;;3.65;2.03;;;20.50;91.90;;;;;;4884193;29;20048;-76
2022/07/07 05:29:00;;;;;;;2.63;2.42;;;20.60;92.00;;;;;;4901820;29;20036;-75
2022/07/07 05:31:32;;;;;;;4.57;2.97;;;20.70;91.90;;;;;;4901424;29;20067;-75
2022/07/07 05:33:58;;;;;;;3.05;2.35;;;20.80;91.50;;;;;;4901234;29;20049;-76
2022/07/07 05:36:32;;;;;;;2.67;2.10;;;21.00;91.20;;;;;;4881587;29;20458;-76
2022/07/07 05:39:03;;;;;;;2.85;2.25;;;21.10;91.20;;;;;;4885027;29;20071;-76
2022/07/07 05:41:32;;;;;;;2.22;2.10;;;21.30;90.60;;;;;;4885427;29;20021;-76
2022/07/07 05:44:04;;;;;;;2.45;2.00;;;21.50;90.20;;;;;;4886970;29;20397;-76
2022/07/07 05:46:40;;;;;;;2.80;2.08;;;21.90;89.40;;;;;;4900043;29;20474;-75
2022/07/07 05:49:08;;;;;;;2.20;2.10;;;21.90;88.10;;;;;;4901183;29;20035;-76
2022/07/07 05:51:38;;;;;;;2.75;1.92;;;21.90;88.10;;;;;;4900804;29;20020;-76
2022/07/07 05:54:06;;;;;;;2.60;2.17;;;21.90;87.40;;;;;;4883538;29;20033;-76
2022/07/07 05:56:33;;;;;;;2.30;1.90;;;22.20;87.00;;;;;;4884906;29;20390;-76
2022/07/07 05:59:00;;;;;;;2.33;1.90;;;22.70;85.60;;;;;;4883873;29;20021;-76
2022/07/07 06:01:28;;;;;;;3.08;1.77;;;23.00;84.50;;;;;;4896325;29;20382;-76
2022/07/07 06:03:58;;;;;;;5.03;2.28;;;22.90;84.00;;;;;;4901168;29;20035;-75
2022/07/07 06:06:26;;;;;;;2.85;2.00;;;22.90;83.60;;;;;;4897288;29;20024;-76
2022/07/07 06:08:55;;;;;;;2.83;2.05;;;23.10;83.30;;;;;;4882608;29;20640;-77
2022/07/07 06:11:22;;;;;;;3.53;1.77;;;23.20;81.60;;;;;;4882002;29;20024;-76
2022/07/07 06:13:49;;;;;;;2.03;1.80;;;23.00;81.20;;;;;;4907196;29;20040;-76
2022/07/07 06:16:16;;;;;;;2.65;1.70;;;23.30;81.20;;;;;;4888264;29;20031;-76
2022/07/07 06:18:42;;;;;;;3.08;2.10;;;23.40;79.30;;;;;;4884677;29;20032;-76
2022/07/07 06:21:10;;;;;;;3.03;1.90;;;23.40;79.10;;;;;;4900050;29;20055;-77
2022/07/07 06:23:35;;;;;;;4.78;2.45;;;23.90;78.60;;;;;;4895860;29;20442;-77
2022/07/07 06:26:02;;;;;;;2.45;1.70;;;24.40;76.70;;;;;;4901326;29;20099;-77
2022/07/07 06:28:29;;;;;;;2.55;1.60;;;24.70;75.70;;;;;;4901430;29;20496;-77
2022/07/07 06:31:02;;;;;;;4.88;2.28;;;24.90;74.80;;;;;;4884141;29;20123;-77
2022/07/07 06:33:46;;;;;;;2.15;1.90;;;25.30;74.00;;;;;;4896087;29;20032;-76
2022/07/07 06:36:11;;;;;;;3.22;2.22;;;25.80;72.10;;;;;;4899888;29;20107;-77
2022/07/07 06:38:39;;;;;;;3.45;1.90;;;26.30;71.60;;;;;;4899130;29;20118;-76
2022/07/07 06:41:05;;;;;;;3.20;1.52;;;26.90;68.80;;;;;;4897103;29;20115;-76
2022/07/07 06:43:31;;;;;;;;;;;27.00;68.30;;;;;;4885594;29;20114;-75
2022/07/07 06:46:04;;;;;;;4.80;2.00;;;27.50;66.60;;;;;;4899894;29;19911;-75
2022/07/07 06:48:39;;;;;;;4.60;2.10;;;28.10;65.90;;;;;;4900566;29;20272;-76
2022/07/07 06:51:05;;;;;;;2.83;1.85;;;28.70;64.00;;;;;;4884066;29;20024;-76
2022/07/07 06:53:31;;;;;;;3.13;1.85;;;29.50;63.40;;;;;;4883389;29;20032;-76
2022/07/07 06:56:04;;;;;;;2.90;1.75;;;29.90;62.10;;;;;;4877871;29;20710;-76
2022/07/07 06:58:30;;;;;;;3.60;1.58;;;30.60;61.00;;;;;;4895819;29;20043;-76
2022/07/07 07:00:59;;;;;;;1.90;1.50;;;31.10;59.60;;;;;;4883484;29;20020;-76
2022/07/07 07:03:26;;;;;;;2.58;1.52;;;31.80;58.30;;;;;;4883499;29;20024;-76
2022/07/07 07:05:54;;;;;;;4.25;1.42;;;31.70;57.60;;;;;;4900129;29;20021;-75
2022/07/07 07:08:27;;;;;;;4.43;1.55;;;32.10;57.10;;;;;;4899280;29;20040;-75
2022/07/07 07:10:54;;;;;;;4.97;1.75;;;32.40;55.90;;;;;;4876841;29;20449;-76
2022/07/07 07:13:23;;;;;;;1.63;1.50;;;32.20;55.20;;;;;;4885156;29;20434;-75
2022/07/07 07:15:49;;;;;;;2.03;1.58;;;31.70;56.10;;;;;;4899254;29;20477;-76
2022/07/07 07:18:17;;;;;;;3.13;1.50;;;32.40;55.00;;;;;;4902449;29;20091;-76
2022/07/07 07:20:42;;;;;;;2.53;1.70;;;33.00;54.70;;;;;;4877657;29;20035;-76
2022/07/07 07:23:14;;;;;;;2.05;1.38;;;32.90;53.90;;;;;;4900698;29;20032;-75
2022/07/07 07:25:40;;;;;;;1.40;1.30;;;33.50;52.70;;;;;;4899244;29;20054;-76
2022/07/07 07:28:05;;;;;;;3.42;1.73;;;33.90;52.40;;;;;;4893365;29;20028;-76
2022/07/07 07:30:32;;;;;;;2.10;1.50;;;34.10;52.10;;;;;;4896004;29;20441;-76
2022/07/07 07:32:58;;;;;;;2.10;1.80;;;34.20;51.10;;;;;;4895674;29;20029;-76
2022/07/07 07:35:24;;;;;;;3.15;1.70;;;34.40;50.50;;;;;;4896080;29;20034;-76
2022/07/07 07:37:50;;;;;;;5.50;1.67;;;33.90;49.20;;;;;;4905124;29;20032;-76
2022/07/07 07:40:16;;;;;;;2.97;1.83;;;33.80;49.50;;;;;;4895679;29;20088;-76
2022/07/07 07:42:49;;;;;;;2.80;1.50;;;33.80;49.50;;;;;;4903673;29;20028;-76
2022/07/07 07:45:23;;;;;;;1.90;1.67;;;34.00;49.50;;;;;;4889187;29;20115;-77
2022/07/07 07:47:50;;;;;;;2.60;1.65;;;34.00;48.90;;;;;;4885424;29;20028;-76
2022/07/07 07:50:20;;;;;;;1.73;1.50;;;34.00;48.70;;;;;;4884496;29;20051;-77
2022/07/07 07:52:48;;;;;;;2.17;1.70;;;34.20;48.50;;;;;;4900912;29;20035;-77
2022/07/07 07:55:16;;;;;;;4.70;1.50;;;34.90;47.60;;;;;;4903103;29;20482;-77
2022/07/07 07:57:42;;;;;;;1.63;1.38;;;35.40;47.30;;;;;;4903671;29;20378;-76
2022/07/07 08:00:13;;;;;;;1.50;1.40;;;35.40;46.40;;;;;;4898394;29;20052;-77
2022/07/07 08:02:40;;;;;;;2.20;1.67;;;35.60;46.80;;;;;;4899198;29;20486;-77
2022/07/07 08:05:08;;;;;;;1.42;1.33;;;35.40;46.70;;;;;;4894845;29;20343;-76
2022/07/07 08:07:34;;;;;;;2.97;1.52;;;35.50;46.50;;;;;;4886869;29;20032;-76
2022/07/07 08:10:05;;;;;;;2.75;1.50;;;35.40;46.00;;;;;;4880390;29;20055;-77
2022/07/07 08:12:35;;;;;;;2.05;1.42;;;35.10;46.30;;;;;;4885001;29;21510;-77
2022/07/07 08:15:01;;;;;;;4.43;1.65;;;35.20;46.00;;;;;;4885801;29;20029;-70
2022/07/07 08:17:27;;;;;;;4.63;1.60;;;34.80;46.60;;;;;;4900891;29;20028;-71
2022/07/07 08:19:53;;;;;;;2.50;1.50;;;35.10;46.10;;;;;;4900038;29;20031;-73
2022/07/07 08:22:21;;;;;;;1.60;1.48;;;35.10;45.70;;;;;;4884923;29;20024;-73
2022/07/07 08:24:47;;;;;;;1.40;1.30;;;35.60;45.30;;;;;;4899491;29;20032;-73
2022/07/07 08:27:12;;;;;;;1.98;1.52;;;35.10;45.90;;;;;;4896948;29;20025;-73
2022/07/07 08:29:38;;;;;;;1.40;1.30;;;35.80;45.20;;;;;;4897564;29;20031;-73
2022/07/07 08:32:10;;;;;;;3.80;1.40;;;36.10;44.90;;;;;;4899952;29;20028;-74
2022/07/07 08:34:38;;;;;;;1.63;1.30;;;36.30;44.00;;;;;;4884439;29;20031;-73
2022/07/07 08:37:04;;;;;;;3.30;1.50;;;35.30;44.70;;;;;;4893490;29;20579;-76
2022/07/07 08:39:40;;;;;;;3.60;1.40;;;35.20;44.50;;;;;;4885521;29;20509;-76
2022/07/07 08:42:07;;;;;;;;;;;35.30;44.50;;;;;;4885877;29;20147;-79
2022/07/07 08:44:34;;;;;;;1.63;1.30;;;35.10;44.50;;;;;;4905266;29;19925;-81
2022/07/07 08:47:03;;;;;;;1.58;1.48;;;35.00;44.40;;;;;;4880127;29;20572;-76
2022/07/07 08:49:30;;;;;;;2.90;1.42;;;34.80;45.10;;;;;;4885177;29;20024;-76
2022/07/07 08:51:56;;;;;;;1.48;1.38;;;34.50;45.30;;;;;;4900590;29;20802;-76
2022/07/07 08:54:25;;;;;;;1.85;1.75;;;35.40;44.80;;;;;;4901551;29;20493;-75
2022/07/07 08:56:51;;;;;;;3.00;1.40;;;35.40;43.50;;;;;;4896156;29;20076;-73
2022/07/07 08:59:18;;;;;;;2.30;1.60;;;35.00;44.90;;;;;;4901370;29;20032;-74
2022/07/07 09:01:58;;;;;;;2.90;1.50;;;34.90;44.30;;;;;;4895941;29;20032;-74
2022/07/07 09:04:25;;;;;;;2.10;1.52;;;34.40;45.00;;;;;;4882293;29;20032;-74
2022/07/07 09:06:58;;;;;;;2.05;1.40;;;33.70;46.10;;;;;;4879609;29;20035;-74
2022/07/07 09:09:38;;;;;;;1.70;1.60;;;33.50;46.50;;;;;;4900022;29;20016;-72
2022/07/07 09:12:07;;;;;;;1.50;1.40;;;33.20;47.10;;;;;;4895005;29;20023;-73
2022/07/07 09:14:41;;;;;;;3.35;1.50;;;32.80;47.20;;;;;;4899990;29;20537;-73
2022/07/07 09:17:28;;;;;;;2.92;1.63;;;32.50;47.00;;;;;;4901833;29;20933;-71
2022/07/07 09:20:12;;;;;;;2.58;1.70;;;32.00;47.40;;;;;;4898717;29;20036;-71
2022/07/07 09:22:48;;;;;;;3.15;1.63;;;31.20;48.50;;;;;;4894656;29;20028;-71
2022/07/07 09:25:20;;;;;;;2.63;1.70;;;30.20;49.50;;;;;;4898494;29;20107;-71
2022/07/07 09:27:57;;;;;;;4.45;2.20;;;29.60;50.80;;;;;;4897567;29;20024;-71
2022/07/07 09:30:31;;;;;;;2.10;1.55;;;29.00;51.50;;;;;;4894487;29;20406;-71
2022/07/07 09:32:59;;;;;;;2.75;1.67;;;28.50;51.90;;;;;;4897947;29;20029;-71
2022/07/07 09:38:23;;;;;;;7.22;2.00;;;28.10;52.90;;;;;;4897984;29;20059;-79
2022/07/07 09:40:51;;;;;;;1.60;1.50;;;27.80;53.50;;;;;;4882055;29;20032;-78
2022/07/07 09:43:20;;;;;;;2.13;1.65;;;27.40;53.40;;;;;;4885004;29;20023;-80
2022/07/07 09:46:07;;;;;;;2.80;1.60;;;26.90;53.00;;;;;;4897971;29;20024;-80
2022/07/07 09:48:34;;;;;;;3.55;1.88;;;26.40;54.40;;;;;;4898253;29;20111;-79
2022/07/07 09:51:11;;;;;;;2.40;1.55;;;26.20;54.30;;;;;;4883540;29;20068;-80
2022/07/07 09:54:01;;;;;;;3.60;1.85;;;26.10;54.20;;;;;;4900922;29;20036;-78
2022/07/07 09:56:38;;;;;;;1.98;1.83;;;25.90;54.40;;;;;;4903075;29;20078;-79
2022/07/07 09:59:18;;;;;;;2.55;1.60;;;25.60;55.00;;;;;;4883687;29;20043;-78
2022/07/07 10:01:52;;;;;;;6.30;2.00;;;25.60;55.70;;;;;;4884444;29;20107;-78
2022/07/07 10:04:19;;;;;;;1.80;1.70;;;25.50;55.50;;;;;;4876824;29;20509;-79
2022/07/07 10:06:45;;;;;;;1.70;1.60;;;25.60;55.50;;;;;;4897443;29;20024;-79
2022/07/07 10:09:20;;;;;;;;;;;25.70;55.40;;;;;;4897504;29;20035;-79
2022/07/07 10:11:53;;;;;;;2.35;1.27;;;25.90;55.70;;;;;;4896688;29;19963;-79
2022/07/07 10:14:43;;;;;;;1.67;1.58;;;26.20;55.60;;;;;;4899317;29;20028;-80
2022/07/07 10:17:16;;;;;;;3.72;1.60;;;26.80;54.70;;;;;;4885854;29;20050;-83
2022/07/07 10:19:48;;;;;;;3.03;1.80;;;27.20;54.00;;;;;;4896863;29;20115;-79
2022/07/07 10:22:14;;;;;;;1.75;1.63;;;27.50;54.20;;;;;;4896236;29;20032;-79
2022/07/07 10:25:06;;;;;;;2.78;1.52;;;28.00;54.00;;;;;;4883895;29;20063;-79
2022/07/07 10:27:44;;;;;;;2.00;1.80;;;28.80;53.30;;;;;;4889757;29;20502;-78
2022/07/07 10:30:42;;;;;;;2.17;1.65;;;29.10;52.50;;;;;;4896782;29;20055;-80
2022/07/07 10:33:08;;;;;;;5.18;1.75;;;28.90;53.20;;;;;;4866010;29;20043;-78
2022/07/07 10:35:42;;;;;;;;;;;28.40;53.30;;;;;;4895699;29;20024;-79
2022/07/07 10:38:18;;;;;;;1.92;1.52;;;27.80;53.10;;;;;;4884749;29;19915;-81
2022/07/07 10:40:52;;;;;;;2.00;1.70;;;27.00;53.50;;;;;;4897750;29;20024;-80
2022/07/07 10:44:10;;;;;;;4.25;1.70;;;26.50;54.80;;;;;;4888176;29;20386;-79
2022/07/07 10:46:37;;;;;;;2.20;1.63;;;26.20;55.60;;;;;;4829542;29;20385;-80
2022/07/07 10:49:10;;;;;;;4.68;1.52;;;26.20;55.80;;;;;;4884680;29;20028;-80
2022/07/07 10:51:57;;;;;;;3.42;1.70;;;26.20;56.30;;;;;;4898931;29;20021;-80
2022/07/07 10:54:35;;;;;;;;;;;26.10;56.20;;;;;;4892026;29;20433;-79
2022/07/07 10:57:01;;;;;;;3.08;2.10;;;26.10;56.30;;;;;;4883546;29;19907;-78
2022/07/07 10:59:28;;;;;;;2.03;1.80;;;25.90;56.10;;;;;;4878772;29;20550;-79
2022/07/07 11:02:03;;;;;;;4.72;2.20;;;26.00;56.60;;;;;;4899180;29;20028;-79
2022/07/07 11:04:41;;;;;;;2.00;1.80;;;26.20;56.50;;;;;;4892046;29;20087;-80
2022/07/07 11:07:18;;;;;;;2.47;1.70;;;26.20;55.60;;;;;;4885076;29;20083;-79
2022/07/07 11:10:05;;;;;;;2.75;2.00;;;26.40;55.80;;;;;;4883749;29;20076;-80
2022/07/07 11:12:54;;;;;;;4.75;1.80;;;26.60;55.80;;;;;;4899096;29;20568;-79
2022/07/07 11:15:37;;;;;;;2.88;1.83;;;26.70;55.30;;;;;;4894685;29;20039;-79
2022/07/07 11:18:14;;;;;;;4.68;1.77;;;26.70;55.50;;;;;;4906489;29;20375;-79
2022/07/07 11:21:01;;;;;;;7.22;1.95;;;27.10;54.80;;;;;;4888723;29;20127;-80
2022/07/07 11:23:48;;;;;;;2.28;1.77;;;27.00;55.40;;;;;;4880519;29;20542;-80
2022/07/07 11:26:25;;;;;;;4.00;1.60;;;27.20;55.60;;;;;;4885704;29;20083;-79
2022/07/07 11:28:54;;;;;;;3.10;1.25;;;27.10;54.80;;;;;;4894732;29;20115;-79
2022/07/07 11:31:23;;;;;;;3.72;1.50;;;27.00;53.70;;;;;;4887577;29;20020;-81
2022/07/07 11:33:56;;;;;;;1.90;1.20;;;26.90;52.60;;;;;;4900801;29;20035;-79
2022/07/07 11:36:29;;;;;;;3.50;1.30;;;26.90;52.20;;;;;;4907418;29;20031;-84
2022/07/07 11:39:05;;;;;;;1.58;0.90;;;26.90;52.20;;;;;;4884634;29;20032;-81
2022/07/07 11:41:45;;;;;;;0.98;0.90;;;26.60;52.70;;;;;;4881050;29;21000;-79
2022/07/07 11:44:22;;;;;;;0.82;0.82;;;26.20;52.10;;;;;;4904097;29;20035;-79
2022/07/07 11:46:50;;;;;;;2.28;1.17;;;25.60;52.60;;;;;;4885680;29;20058;-80
2022/07/07 11:49:18;;;;;;;1.67;0.90;;;25.30;53.40;;;;;;4903616;29;20023;-81
2022/07/07 11:51:46;;;;;;;1.33;0.98;;;24.90;54.20;;;;;;4885288;29;20021;-81
2022/07/07 11:54:12;;;;;;;1.80;0.98;;;24.70;54.70;;;;;;4887470;29;20028;-80
2022/07/07 11:56:41;;;;;;;2.38;1.13;;;24.30;54.20;;;;;;4881768;29;20076;-81
2022/07/07 11:59:22;;;;;;;1.30;0.85;;;24.20;55.70;;;;;;4904020;29;20401;-79
2022/07/07 12:01:53;;;;;;;1.50;1.10;;;24.10;55.50;;;;;;4910316;29;20385;-80
2022/07/07 12:04:22;;;;;;;1.98;1.00;;;23.90;55.90;;;;;;4897642;29;20052;-79
2022/07/07 12:06:54;;;;;;;1.92;1.30;;;23.80;57.30;;;;;;4901926;29;20508;-80
2022/07/07 12:09:31;;;;;;;4.43;1.48;;;23.70;57.30;;;;;;4901352;29;20024;-79
2022/07/07 12:11:57;;;;;;;2.78;1.60;;;23.50;57.80;;;;;;4885406;29;20072;-79
2022/07/07 12:14:23;;;;;;;1.83;1.05;;;23.30;59.30;;;;;;4901545;29;20044;-79
2022/07/07 12:16:49;;;;;;;1.75;1.38;;;23.00;60.10;;;;;;4905762;29;20108;-78
2022/07/07 12:19:22;;;;;;;5.72;1.20;;;22.80;60.40;;;;;;4885798;29;20032;-78
2022/07/07 12:21:52;;;;;;;2.17;1.52;;;22.60;61.30;;;;;;4882944;29;20128;-79
2022/07/07 12:24:21;;;;;;;4.75;1.90;;;22.50;61.80;;;;;;4903319;29;20028;-80
2022/07/07 12:26:51;;;;;;;2.00;1.30;;;22.10;62.80;;;;;;4884001;29;20020;-80
2022/07/07 12:29:22;;;;;;;2.03;1.30;;;22.00;63.70;;;;;;4883694;29;20036;-80
2022/07/07 12:31:50;;;;;;;2.88;1.40;;;21.80;64.50;;;;;;4900295;29;20028;-79
2022/07/07 12:34:36;;;;;;;2.08;1.40;;;21.90;65.00;;;;;;4896851;29;20084;-77
2022/07/07 12:37:02;;;;;;;4.15;1.80;;;21.90;65.40;;;;;;4917841;29;20059;-80
2022/07/07 12:39:32;;;;;;;11.23;1.75;;;21.90;65.60;;;;;;4890921;29;20066;-81
2022/07/07 12:42:00;;;;;;;3.13;2.15;;;21.90;66.00;;;;;;4892211;29;20038;-80
2022/07/07 12:44:35;;;;;;;4.00;2.20;;;21.90;66.50;;;;;;4900076;29;20473;-79
2022/07/07 12:47:02;;;;;;;3.47;1.90;;;21.90;66.80;;;;;;4889621;29;20111;-78
2022/07/07 12:49:29;;;;;;;3.70;1.65;;;21.50;67.90;;;;;;4910819;29;20029;-77
2022/07/07 12:51:58;;;;;;;3.65;2.00;;;21.40;68.30;;;;;;4899294;29;20039;-79
2022/07/07 12:54:29;;;;;;;4.10;1.73;;;21.50;68.80;;;;;;4902771;29;20076;-79
2022/07/07 12:57:15;;;;;;;4.95;1.73;;;21.60;68.40;;;;;;4913332;29;20032;-83
2022/07/07 12:59:44;;;;;;;4.30;1.83;;;21.60;68.90;;;;;;4883510;29;20032;-80
2022/07/07 13:02:18;;;;;;;4.32;1.90;;;21.50;68.90;;;;;;4901289;29;20046;-78
2022/07/07 13:04:47;;;;;;;2.30;1.85;;;21.60;69.40;;;;;;4909522;29;20155;-80